You are not logged in, Click here to log in
蘇加諾-哈達國際機場CGK / WIII 印度尼西亞
ICAO: WIII Country: 印度尼西亞
Latitude: -6.12751 Longitude: 106.654
Total Arrivals: 26 Total Departures: 25
Latest Arrival: GA423 (WADD-WIII)Lun. Wang Latest Departure: BR4150 (WIII-WADD)CHU. CHUHAO
Scenery:
METAR : WIII 221400Z 11004KT 8000 FEW021 26/23 Q1010 NOSIG

蘇加諾-哈達國際機場CGK

You are accessing this site from IP address 34.200.236.68. Virtual Airline. CMS by phpVMS.Website designed by Zumeweb and edited by Theo Bearman.
There is 0 User(s) Online: | and 10 Guest(s) Online.
All information on this site is for fight simulation purposes only. This site is for flight logging for pilots of Virtual Airline&模擬飛行論壇 FlySim only.